Time;durP1;ratioP1;P1;durP2;ratioP2;P2;SDS_P1;SDS_P2;PMS_P1;PMS_P2;Temp;Humidity;BMP_temperature;BMP_pressure;BME280_temperature;BME280_humidity;BME280_pressure;Samples;Min_cycle;Max_cycle;Signal;HPM_P1;HPM_P2
2022/12/04 00:01:20;;;;;;;56.63;22.90;;;17.30;89.30;;;;;;5051158;28;20451;-65
2022/12/04 00:03:46;;;;;;;62.97;24.93;;;17.30;89.70;;;;;;5048081;28;20079;-65
2022/12/04 00:06:17;;;;;;;58.17;23.45;;;17.20;89.90;;;;;;5050225;28;21503;-65
2022/12/04 00:08:45;;;;;;;53.63;23.55;;;17.10;90.30;;;;;;5048175;28;21661;-65
2022/12/04 00:11:14;;;;;;;62.05;24.35;;;17.10;90.60;;;;;;5047629;28;20093;-66
2022/12/04 00:13:40;;;;;;;61.33;25.17;;;17.00;90.90;;;;;;5049238;28;20065;-67
2022/12/04 00:16:10;;;;;;;53.65;24.38;;;17.00;91.40;;;;;;5050498;28;20070;-66
2022/12/04 00:18:36;;;;;;;59.22;26.17;;;17.00;91.60;;;;;;5050188;28;20499;-66
2022/12/04 00:21:05;;;;;;;58.67;25.35;;;17.00;91.80;;;;;;5049750;28;20093;-69
2022/12/04 00:23:32;;;;;;;48.83;23.92;;;16.90;92.10;;;;;;5050849;28;20177;-66
2022/12/04 00:26:06;;;;;;;49.47;22.80;;;16.90;92.20;;;;;;5049282;28;20172;-67
2022/12/04 00:28:34;;;;;;;54.88;24.92;;;16.90;92.40;;;;;;5049533;28;20065;-67
2022/12/04 00:31:05;;;;;;;53.92;24.73;;;16.80;92.60;;;;;;5047127;28;20096;-67
2022/12/04 00:33:31;;;;;;;58.85;26.23;;;16.80;92.80;;;;;;5042419;28;20104;-64
2022/12/04 00:36:04;;;;;;;60.40;25.65;;;16.70;92.90;;;;;;5050105;28;20147;-65
2022/12/04 00:38:30;;;;;;;52.25;24.65;;;16.70;93.00;;;;;;5048789;28;20092;-68
2022/12/04 00:40:57;;;;;;;58.28;25.67;;;16.60;93.20;;;;;;5049467;28;20081;-65
2022/12/04 00:43:26;;;;;;;;;;;16.50;93.40;;;;;;5050106;28;20082;-66
2022/12/04 00:45:52;;;;;;;70.82;27.83;;;16.50;93.70;;;;;;5048251;28;20075;-65
2022/12/04 00:48:19;;;;;;;55.08;26.88;;;16.50;94.10;;;;;;5048459;28;20077;-65
2022/12/04 00:50:45;;;;;;;73.10;28.30;;;16.40;94.30;;;;;;5048876;28;21719;-67
2022/12/04 00:53:12;;;;;;;64.65;27.17;;;16.30;94.40;;;;;;5049249;28;20128;-67
2022/12/04 00:55:40;;;;;;;60.20;25.38;;;16.30;94.60;;;;;;5048372;28;20065;-68
2022/12/04 00:58:07;;;;;;;64.47;28.73;;;16.20;94.60;;;;;;5048722;28;20092;-64
2022/12/04 01:00:42;;;;;;;78.82;34.20;;;16.20;94.70;;;;;;5049318;28;20096;-66
2022/12/04 01:03:09;;;;;;;89.40;47.72;;;16.10;94.80;;;;;;5047051;28;20121;-65
2022/12/04 01:05:40;;;;;;;78.53;42.60;;;16.10;94.90;;;;;;5049360;28;20533;-66
2022/12/04 01:08:08;;;;;;;78.00;36.85;;;16.00;95.10;;;;;;5048195;28;20073;-64
2022/12/04 01:10:36;;;;;;;70.55;34.20;;;16.00;95.30;;;;;;5047803;28;20100;-66
2022/12/04 01:13:03;;;;;;;87.38;39.97;;;16.00;95.60;;;;;;5046662;28;20066;-64
2022/12/04 01:15:29;;;;;;;91.13;39.67;;;15.90;95.80;;;;;;5048081;28;20086;-65
2022/12/04 01:17:56;;;;;;;76.03;34.75;;;15.90;96.00;;;;;;5048939;28;20721;-66
2022/12/04 01:20:23;;;;;;;76.63;32.60;;;15.90;96.00;;;;;;5047998;28;20081;-66
2022/12/04 01:22:49;;;;;;;66.40;32.33;;;15.90;96.10;;;;;;5048903;28;20078;-66
2022/12/04 01:25:15;;;;;;;;;;;15.90;96.30;;;;;;5049575;28;20101;-65
2022/12/04 01:27:41;;;;;;;65.20;33.25;;;15.80;96.40;;;;;;5048941;28;20011;-67
2022/12/04 01:30:08;;;;;;;;;;;15.80;96.60;;;;;;5048053;28;20085;-66
2022/12/04 01:32:34;;;;;;;71.25;31.98;;;15.80;96.70;;;;;;5049218;28;20429;-66
2022/12/04 01:35:01;;;;;;;72.38;31.67;;;15.70;96.90;;;;;;5044154;28;20069;-68
2022/12/04 01:37:30;;;;;;;72.63;32.88;;;15.70;97.00;;;;;;5046916;28;20099;-65
2022/12/04 01:39:57;;;;;;;74.15;37.55;;;15.70;97.10;;;;;;5048048;28;20113;-65
2022/12/04 01:42:24;;;;;;;73.50;38.35;;;15.60;97.20;;;;;;5047284;28;20077;-67
2022/12/04 01:45:27;;;;;;;81.00;40.45;;;15.60;97.30;;;;;;5049187;28;20081;-64
2022/12/04 01:47:57;;;;;;;84.05;40.40;;;15.60;97.50;;;;;;5047236;28;20074;-65
2022/12/04 01:50:24;;;;;;;71.95;40.45;;;15.60;97.70;;;;;;5048176;28;20093;-66
2022/12/04 01:52:51;;;;;;;76.47;41.05;;;15.60;97.60;;;;;;5047589;28;20102;-65
2022/12/04 01:55:18;;;;;;;78.53;41.47;;;15.50;97.70;;;;;;5048889;28;20077;-66
2022/12/04 01:57:45;;;;;;;87.47;45.65;;;15.50;97.90;;;;;;5049196;28;20089;-66
2022/12/04 02:00:14;;;;;;;85.03;45.40;;;15.50;98.00;;;;;;5047999;28;20073;-67
2022/12/04 02:02:46;;;;;;;72.20;41.55;;;15.50;98.40;;;;;;5048876;28;20166;-66
2022/12/04 02:05:20;;;;;;;81.88;39.55;;;15.50;98.80;;;;;;5047546;28;20115;-66
2022/12/04 02:07:49;;;;;;;69.95;39.20;;;15.40;99.60;;;;;;5047729;28;20078;-68
2022/12/04 02:10:23;;;;;;;77.43;39.72;;;15.40;99.90;;;;;;5048913;28;20117;-67
2022/12/04 02:13:19;;;;;;;76.80;39.08;;;15.40;99.90;;;;;;5048629;28;20070;-66
2022/12/04 02:16:00;;;;;;;63.50;29.10;;;15.40;99.90;;;;;;5048976;28;20109;-66
2022/12/04 02:18:49;;;;;;;59.50;30.52;;;15.40;99.90;;;;;;5048736;28;20093;-64
2022/12/04 02:21:37;;;;;;;70.22;35.08;;;15.30;99.90;;;;;;5049957;28;20176;-64
2022/12/04 02:24:32;;;;;;;60.42;29.15;;;15.20;99.90;;;;;;5052472;28;20096;-62
2022/12/04 02:27:14;;;;;;;54.05;28.15;;;15.20;99.90;;;;;;5050698;28;20162;-65
2022/12/04 02:30:03;;;;;;;61.40;28.60;;;15.20;99.90;;;;;;5051028;28;20462;-67
2022/12/04 02:32:42;;;;;;;68.57;31.08;;;15.20;99.90;;;;;;5052484;28;20077;-65
2022/12/04 02:35:11;;;;;;;51.88;29.02;;;15.20;99.90;;;;;;5049998;28;20427;-65
2022/12/04 02:37:46;;;;;;;56.00;27.92;;;15.20;99.90;;;;;;5050942;28;20523;-68
2022/12/04 02:40:36;;;;;;;52.10;28.05;;;15.10;99.90;;;;;;5051119;28;20077;-68
2022/12/04 02:43:19;;;;;;;54.75;24.15;;;15.10;99.90;;;;;;5050800;28;20454;-65
2022/12/04 02:45:56;;;;;;;42.03;25.35;;;15.10;99.90;;;;;;5050361;28;20120;-66
2022/12/04 02:48:26;;;;;;;53.22;28.77;;;15.10;99.90;;;;;;5048128;28;20081;-64
2022/12/04 02:50:55;;;;;;;53.20;29.02;;;15.10;99.90;;;;;;5051265;28;20093;-65
2022/12/04 02:53:33;;;;;;;60.65;29.73;;;15.10;99.90;;;;;;5050136;28;20570;-68
2022/12/04 02:56:05;;;;;;;56.67;28.48;;;15.00;99.90;;;;;;5051481;28;20534;-66
2022/12/04 02:58:45;;;;;;;66.07;30.60;;;15.00;99.90;;;;;;5051462;28;20081;-67
2022/12/04 03:01:20;;;;;;;61.25;32.42;;;15.00;99.90;;;;;;5050675;28;20123;-66
2022/12/04 03:04:02;;;;;;;51.97;27.90;;;15.00;99.90;;;;;;5049814;28;20077;-67
2022/12/04 03:06:33;;;;;;;59.58;30.63;;;15.00;99.90;;;;;;5051545;28;20140;-68
2022/12/04 03:09:13;;;;;;;55.05;30.83;;;15.00;99.90;;;;;;5050244;28;20433;-64
2022/12/04 03:11:44;;;;;;;48.42;26.02;;;14.90;99.90;;;;;;5051858;28;20093;-66
2022/12/04 03:14:15;;;;;;;50.10;27.60;;;14.90;99.90;;;;;;5049128;28;20143;-66
2022/12/04 03:16:43;;;;;;;50.40;29.33;;;14.90;99.90;;;;;;5048126;28;20560;-68
2022/12/04 03:19:16;;;;;;;64.60;36.13;;;15.00;99.90;;;;;;5048995;28;20120;-66
2022/12/04 03:21:55;;;;;;;57.80;34.58;;;14.90;99.90;;;;;;5051075;28;20076;-65
2022/12/04 03:24:45;;;;;;;53.78;28.40;;;14.90;99.90;;;;;;5049992;28;20100;-65
2022/12/04 03:27:33;;;;;;;46.50;25.05;;;14.90;99.90;;;;;;5051843;28;20084;-65
2022/12/04 03:30:20;;;;;;;52.13;26.23;;;14.90;99.90;;;;;;5051892;28;20534;-65
2022/12/04 03:33:07;;;;;;;46.55;24.90;;;14.80;99.90;;;;;;5049539;28;20604;-65
2022/12/04 03:35:40;;;;;;;46.67;24.60;;;14.90;99.90;;;;;;5049543;28;20077;-64
2022/12/04 03:38:32;;;;;;;50.35;24.08;;;14.80;99.90;;;;;;5051607;28;20130;-67
2022/12/04 03:41:24;;;;;;;47.90;25.48;;;14.90;99.90;;;;;;5049201;28;20083;-64
2022/12/04 03:44:11;;;;;;;50.88;24.33;;;14.80;99.90;;;;;;5048748;28;20084;-67
2022/12/04 03:46:40;;;;;;;45.67;24.38;;;14.80;99.90;;;;;;5050479;28;20159;-64
2022/12/04 03:49:28;;;;;;;45.95;26.13;;;14.80;99.90;;;;;;5051546;28;20101;-66
2022/12/04 03:52:13;;;;;;;58.08;25.92;;;14.80;99.90;;;;;;5051358;28;20121;-66
2022/12/04 03:54:55;;;;;;;57.22;28.40;;;14.80;99.90;;;;;;5051251;28;20070;-67
2022/12/04 03:57:31;;;;;;;63.45;30.58;;;14.80;99.90;;;;;;5049076;28;20109;-63
2022/12/04 04:00:17;;;;;;;60.67;30.13;;;14.80;99.90;;;;;;5047766;28;20404;-63
2022/12/04 04:03:15;;;;;;;67.68;36.13;;;14.80;99.90;;;;;;5051023;28;20123;-63
2022/12/04 04:05:47;;;;;;;80.10;40.88;;;14.70;99.90;;;;;;5046723;28;20117;-65
2022/12/04 04:08:28;;;;;;;91.25;48.33;;;14.70;99.90;;;;;;5050380;28;20140;-64
2022/12/04 04:11:18;;;;;;;95.50;49.45;;;14.70;99.90;;;;;;5049772;28;20093;-64
2022/12/04 04:25:24;;;;;;;79.35;42.35;;;14.50;99.90;;;;;;5050815;28;20123;-64
2022/12/04 04:27:52;;;;;;;83.65;45.70;;;14.60;99.90;;;;;;5051164;28;20562;-67
2022/12/04 04:30:18;;;;;;;77.95;43.35;;;14.50;99.90;;;;;;5048255;28;20604;-64
2022/12/04 04:32:54;;;;;;;81.00;46.92;;;14.50;99.90;;;;;;5049341;28;20101;-65
2022/12/04 04:35:37;;;;;;;80.47;48.07;;;14.40;99.90;;;;;;5048337;28;20162;-65
2022/12/04 04:38:13;;;;;;;74.05;48.60;;;14.40;99.90;;;;;;5049405;28;20090;-64
2022/12/04 04:41:03;;;;;;;83.47;46.22;;;14.40;99.90;;;;;;5049348;28;20079;-65
2022/12/04 04:43:51;;;;;;;84.63;48.53;;;14.40;99.90;;;;;;5049695;28;20558;-66
2022/12/04 04:46:24;;;;;;;91.13;51.88;;;14.30;99.90;;;;;;5046983;28;20081;-65
2022/12/04 04:48:53;;;;;;;93.38;53.53;;;14.40;99.90;;;;;;5048515;28;20545;-65
2022/12/04 04:51:20;;;;;;;89.78;50.50;;;14.40;99.90;;;;;;5049220;28;20099;-66
2022/12/04 04:53:51;;;;;;;91.55;49.42;;;14.40;99.90;;;;;;5050473;28;20073;-64
2022/12/04 04:56:19;;;;;;;76.70;46.05;;;14.40;99.90;;;;;;5050243;28;20086;-64
2022/12/04 04:58:45;;;;;;;89.93;48.60;;;14.40;99.90;;;;;;5050350;28;20078;-64
2022/12/04 05:01:15;;;;;;;79.15;44.38;;;14.40;99.90;;;;;;5049132;28;20255;-66
2022/12/04 05:03:42;;;;;;;82.15;50.05;;;14.40;99.90;;;;;;5047852;28;20089;-64
2022/12/04 05:06:08;;;;;;;86.40;50.22;;;14.20;99.90;;;;;;5048767;28;20112;-65
2022/12/04 05:08:36;;;;;;;74.03;43.10;;;14.10;99.90;;;;;;5049946;28;20085;-65
2022/12/04 05:11:04;;;;;;;74.82;45.20;;;14.10;99.90;;;;;;5049480;28;20523;-65
2022/12/04 05:13:31;;;;;;;68.05;41.58;;;14.10;99.90;;;;;;5049347;28;20065;-66
2022/12/04 05:16:03;;;;;;;77.25;42.47;;;14.10;99.90;;;;;;5048905;28;20070;-64
2022/12/04 05:18:31;;;;;;;72.20;42.30;;;14.20;99.90;;;;;;5047996;28;21554;-64
2022/12/04 05:20:57;;;;;;;69.07;39.83;;;14.20;99.90;;;;;;5049659;28;20077;-65
2022/12/04 05:23:24;;;;;;;65.18;37.08;;;14.20;99.90;;;;;;5049988;28;20150;-66
2022/12/04 05:26:01;;;;;;;71.18;40.42;;;14.20;99.90;;;;;;5049117;28;20069;-63
2022/12/04 05:28:28;;;;;;;64.57;39.28;;;14.10;99.90;;;;;;5048604;28;20279;-63
2022/12/04 05:30:59;;;;;;;70.20;40.10;;;14.00;99.90;;;;;;5049827;28;20105;-66
2022/12/04 05:33:26;;;;;;;68.95;40.28;;;14.00;99.90;;;;;;5047058;28;20073;-64
2022/12/04 05:36:12;;;;;;;74.75;41.78;;;14.00;99.90;;;;;;5046432;28;20558;-63
2022/12/04 05:38:38;;;;;;;68.63;37.97;;;14.00;99.90;;;;;;5047751;28;20097;-63
2022/12/04 05:41:05;;;;;;;;;;;13.90;99.90;;;;;;5050381;28;20550;-65
2022/12/04 05:43:32;;;;;;;76.40;41.17;;;13.90;99.90;;;;;;5049317;28;20333;-66
2022/12/04 05:46:05;;;;;;;73.38;37.97;;;13.90;99.90;;;;;;5049648;28;20438;-65
2022/12/04 05:48:34;;;;;;;68.97;38.75;;;13.90;99.90;;;;;;5048995;28;20100;-65
2022/12/04 05:51:05;;;;;;;57.38;36.95;;;14.00;99.90;;;;;;5046072;28;20578;-65
2022/12/04 05:53:31;;;;;;;63.45;37.30;;;14.00;99.90;;;;;;5047825;28;20115;-64
2022/12/04 05:55:58;;;;;;;;;;;13.90;99.90;;;;;;5051824;28;20076;-65
2022/12/04 05:58:25;;;;;;;67.43;39.80;;;13.90;99.90;;;;;;5053551;28;19973;-64
2022/12/04 06:00:52;;;;;;;67.30;39.65;;;13.80;99.90;;;;;;5051253;28;20073;-65
2022/12/04 06:03:18;;;;;;;74.93;40.53;;;13.80;99.90;;;;;;5052382;28;20148;-64
2022/12/04 06:05:45;;;;;;;64.00;40.33;;;13.80;99.90;;;;;;5052048;28;20463;-63
2022/12/04 06:08:11;;;;;;;66.93;40.97;;;13.70;99.90;;;;;;5052320;28;20080;-65
2022/12/04 06:10:38;;;;;;;73.82;43.38;;;13.80;99.90;;;;;;5051605;28;20508;-66
2022/12/04 06:13:05;;;;;;;;;;;13.90;99.90;;;;;;5052557;28;20127;-64
2022/12/04 06:15:35;;;;;;;68.00;41.33;;;13.80;99.90;;;;;;5034485;28;19961;-66
2022/12/04 06:18:01;;;;;;;72.78;42.25;;;13.90;99.90;;;;;;5051305;28;20156;-66
2022/12/04 06:20:27;;;;;;;;;;;13.90;99.90;;;;;;5050653;28;20074;-66
2022/12/04 06:22:54;;;;;;;76.15;42.80;;;13.90;99.90;;;;;;5055525;28;19988;-64
2022/12/04 06:25:20;;;;;;;80.55;42.28;;;13.90;99.90;;;;;;5053106;28;20104;-65
2022/12/04 06:27:46;;;;;;;;;;;13.80;99.90;;;;;;5052685;28;20628;-65
2022/12/04 06:30:13;;;;;;;72.50;40.88;;;13.80;99.90;;;;;;5053564;28;21924;-64
2022/12/04 06:32:39;;;;;;;70.60;38.47;;;13.80;99.90;;;;;;5053148;28;20078;-64
2022/12/04 06:35:05;;;;;;;;;;;13.80;99.90;;;;;;5049927;28;20077;-66
2022/12/04 06:37:33;;;;;;;64.88;36.78;;;13.60;99.90;;;;;;5051846;28;19962;-68
2022/12/04 06:40:00;;;;;;;65.90;37.00;;;13.70;99.90;;;;;;5052432;28;20085;-68
2022/12/04 06:42:27;;;;;;;;;;;13.70;99.90;;;;;;5052112;28;20422;-67
2022/12/04 06:44:53;;;;;;;64.22;37.58;;;13.70;99.90;;;;;;5051575;28;20010;-66
2022/12/04 06:47:19;;;;;;;;;;;13.70;99.90;;;;;;5052263;28;20088;-67
2022/12/04 06:49:49;;;;;;;62.08;37.42;;;13.80;99.90;;;;;;5051586;28;19957;-68
2022/12/04 06:52:16;;;;;;;65.68;39.47;;;13.80;99.90;;;;;;5050595;28;20190;-66
2022/12/04 06:54:42;;;;;;;58.35;35.55;;;13.80;99.90;;;;;;5050144;28;20080;-66
2022/12/04 06:57:09;;;;;;;75.07;38.90;;;13.80;99.90;;;;;;5052020;28;20207;-66
2022/12/04 06:59:35;;;;;;;;;;;13.80;99.90;;;;;;5051847;28;20454;-65
2022/12/04 07:02:01;;;;;;;61.15;35.88;;;13.80;99.90;;;;;;5051991;28;19982;-65
2022/12/04 07:04:27;;;;;;;;;;;13.80;99.90;;;;;;5052335;28;20172;-65
2022/12/04 07:06:54;;;;;;;66.95;37.28;;;13.80;99.90;;;;;;5051180;28;20110;-66
2022/12/04 07:09:20;;;;;;;;;;;13.80;99.90;;;;;;5051488;28;20069;-65
2022/12/04 07:11:46;;;;;;;66.03;37.28;;;13.70;99.90;;;;;;5051964;28;19992;-66
2022/12/04 07:14:13;;;;;;;;;;;13.80;99.90;;;;;;5049353;28;20076;-65
2022/12/04 07:16:40;;;;;;;65.07;36.97;;;13.80;99.90;;;;;;5049443;28;19973;-66
2022/12/04 07:19:11;;;;;;;70.35;36.97;;;13.70;99.90;;;;;;5049031;28;20155;-66
2022/12/04 07:21:37;;;;;;;58.22;34.35;;;13.80;99.90;;;;;;5050312;28;20100;-67
2022/12/04 07:24:03;;;;;;;;;;;13.80;99.90;;;;;;5048817;28;20081;-67
2022/12/04 07:26:30;;;;;;;49.15;31.98;;;13.70;99.90;;;;;;5044144;28;19963;-67
2022/12/04 07:28:59;;;;;;;54.30;32.85;;;13.70;99.90;;;;;;5045836;28;20165;-67
2022/12/04 07:31:27;;;;;;;64.68;32.50;;;13.70;99.90;;;;;;5045277;28;20088;-67
2022/12/04 07:33:54;;;;;;;57.63;31.20;;;13.70;99.90;;;;;;5045351;28;20477;-67
2022/12/04 07:36:22;;;;;;;65.93;34.60;;;13.60;99.90;;;;;;5046589;28;20171;-66
2022/12/04 07:38:49;;;;;;;64.45;33.60;;;13.60;99.90;;;;;;5044528;28;20496;-66
2022/12/04 07:41:16;;;;;;;58.42;33.45;;;13.60;99.90;;;;;;5045414;28;20081;-66
2022/12/04 07:43:43;;;;;;;61.85;34.22;;;13.60;99.90;;;;;;5045530;28;20080;-66
2022/12/04 07:46:15;;;;;;;59.72;34.70;;;13.60;99.90;;;;;;5047139;28;20077;-66
2022/12/04 07:48:42;;;;;;;69.72;35.55;;;13.60;99.90;;;;;;5045312;28;20078;-64
2022/12/04 07:51:11;;;;;;;71.25;36.25;;;13.60;99.90;;;;;;5045430;28;20101;-66
2022/12/04 07:53:37;;;;;;;82.38;38.17;;;13.60;99.90;;;;;;5045863;28;20066;-66
2022/12/04 07:56:05;;;;;;;65.60;35.55;;;13.60;99.90;;;;;;5049779;28;20563;-65
2022/12/04 07:58:32;;;;;;;69.07;37.38;;;13.60;99.90;;;;;;5050416;28;20134;-66
2022/12/04 08:01:17;;;;;;;57.80;34.83;;;13.50;99.90;;;;;;5050044;28;20089;-65
2022/12/04 08:03:45;;;;;;;67.65;37.50;;;13.50;99.90;;;;;;5050527;28;20136;-66
2022/12/04 08:06:11;;;;;;;64.88;38.67;;;13.50;99.90;;;;;;5050175;28;20108;-66
2022/12/04 08:08:37;;;;;;;;;;;13.40;99.90;;;;;;5051386;28;20073;-68
2022/12/04 08:11:09;;;;;;;70.75;40.08;;;13.50;99.90;;;;;;5048973;28;20068;-67
2022/12/04 08:13:36;;;;;;;72.25;43.22;;;13.50;99.90;;;;;;5049907;28;20065;-68
2022/12/04 08:16:04;;;;;;;87.75;44.22;;;13.50;99.90;;;;;;5049085;28;20105;-68
2022/12/04 08:18:31;;;;;;;91.60;48.08;;;13.50;99.90;;;;;;5049914;28;20118;-67
2022/12/04 08:21:28;;;;;;;94.32;48.60;;;13.50;99.90;;;;;;5049136;28;20076;-68
2022/12/04 08:23:56;;;;;;;86.95;50.90;;;13.40;99.90;;;;;;4953993;28;20080;-69
2022/12/04 08:26:25;;;;;;;85.78;46.42;;;13.40;99.90;;;;;;4956089;28;20609;-68
2022/12/04 08:28:55;;;;;;;85.35;48.55;;;13.30;99.90;;;;;;4961984;28;20179;-68
2022/12/04 08:31:25;;;;;;;76.85;45.13;;;13.30;99.90;;;;;;4962419;28;20544;-68
2022/12/04 08:33:55;;;;;;;74.40;43.88;;;13.30;99.90;;;;;;4961009;28;20122;-66
2022/12/04 08:36:22;;;;;;;98.35;51.17;;;13.30;99.90;;;;;;4957838;28;20076;-66
2022/12/04 08:38:49;;;;;;;76.43;47.13;;;13.30;99.90;;;;;;4956874;28;20079;-65
2022/12/04 08:41:18;;;;;;;80.28;48.05;;;13.20;99.90;;;;;;4955381;28;20103;-68
2022/12/04 08:43:45;;;;;;;79.35;51.20;;;13.30;99.90;;;;;;4960584;28;20135;-66
2022/12/04 08:46:16;;;;;;;73.03;45.10;;;13.30;99.90;;;;;;4954428;28;20134;-68
2022/12/04 08:48:48;;;;;;;76.63;45.95;;;13.30;99.90;;;;;;4959597;28;20135;-66
2022/12/04 08:51:18;;;;;;;87.05;51.03;;;13.20;99.90;;;;;;4955723;28;20095;-66
2022/12/04 08:53:45;;;;;;;81.63;47.30;;;13.10;99.90;;;;;;4960489;28;20094;-65
2022/12/04 08:56:12;;;;;;;81.30;47.88;;;13.10;99.90;;;;;;4962755;28;20475;-68
2022/12/04 08:58:39;;;;;;;81.72;47.80;;;13.20;99.90;;;;;;4960963;28;20084;-67
2022/12/04 09:01:13;;;;;;;86.43;52.30;;;13.20;99.90;;;;;;5037326;28;20139;-63
2022/12/04 09:03:41;;;;;;;91.32;53.40;;;13.20;99.90;;;;;;5047013;28;20092;-65
2022/12/04 09:06:12;;;;;;;91.00;52.08;;;13.30;99.90;;;;;;5049328;28;20101;-67
2022/12/04 09:08:39;;;;;;;91.38;54.67;;;13.30;99.90;;;;;;5046862;28;20100;-67
2022/12/04 09:11:11;;;;;;;98.45;51.78;;;13.30;99.90;;;;;;5049238;28;20597;-67
2022/12/04 09:13:39;;;;;;;77.88;47.90;;;13.30;99.90;;;;;;5046032;28;20097;-67
2022/12/04 09:16:09;;;;;;;105.85;53.95;;;13.20;99.90;;;;;;5049119;28;20074;-66
2022/12/04 09:18:42;;;;;;;91.60;54.45;;;13.20;99.90;;;;;;5049506;28;20085;-65
2022/12/04 09:21:13;;;;;;;80.50;51.38;;;13.30;99.90;;;;;;5048215;28;20140;-67
2022/12/04 09:23:41;;;;;;;78.18;48.53;;;13.20;99.90;;;;;;5049280;28;20585;-66
2022/12/04 09:26:20;;;;;;;78.32;47.35;;;13.10;99.90;;;;;;5048646;28;20098;-68
2022/12/04 09:28:48;;;;;;;77.85;49.20;;;13.10;99.90;;;;;;5045854;28;20126;-67
2022/12/04 09:31:14;;;;;;;83.60;48.28;;;13.00;99.90;;;;;;5050800;28;20085;-69
2022/12/04 09:33:41;;;;;;;84.25;47.85;;;13.00;99.90;;;;;;5052440;28;20141;-67
2022/12/04 09:36:07;;;;;;;75.45;47.47;;;13.00;99.90;;;;;;5052960;28;20073;-67
2022/12/04 09:38:34;;;;;;;80.15;45.90;;;13.00;99.90;;;;;;5052712;28;20078;-69
2022/12/04 09:41:12;;;;;;;;;;;13.00;99.90;;;;;;5052799;28;20117;-69
2022/12/04 09:43:50;;;;;;;70.13;43.05;;;13.00;99.90;;;;;;5052700;28;19957;-69
2022/12/04 09:46:43;;;;;;;92.45;45.22;;;13.00;99.90;;;;;;5049923;28;20096;-67
2022/12/04 09:49:35;;;;;;;72.30;41.00;;;12.90;99.90;;;;;;5051219;28;20485;-67
2022/12/04 09:52:07;;;;;;;77.75;42.08;;;12.90;99.90;;;;;;5051604;28;20094;-67
2022/12/04 09:54:39;;;;;;;76.80;44.25;;;12.80;99.90;;;;;;5050554;28;20092;-66
2022/12/04 09:57:15;;;;;;;79.68;42.00;;;12.90;99.90;;;;;;5052404;28;20161;-67
2022/12/04 09:59:42;;;;;;;74.75;43.33;;;12.90;99.90;;;;;;5052647;28;20119;-68
2022/12/04 10:02:38;;;;;;;76.10;44.08;;;12.90;99.90;;;;;;5052714;28;20480;-67
2022/12/04 10:05:07;;;;;;;81.78;45.33;;;12.80;99.90;;;;;;4995310;28;20591;-67
2022/12/04 10:07:47;;;;;;;93.22;48.03;;;12.70;99.90;;;;;;4998106;28;20083;-69
2022/12/04 10:10:45;;;;;;;79.25;48.25;;;12.70;99.90;;;;;;5001128;28;20083;-66
2022/12/04 10:13:29;;;;;;;;;;;12.60;99.90;;;;;;5001022;28;20071;-67
2022/12/04 10:16:20;;;;;;;101.47;59.45;;;12.70;99.90;;;;;;5004215;28;19977;-68
2022/12/04 10:19:11;;;;;;;99.38;59.67;;;12.70;99.90;;;;;;4995064;28;20177;-67
2022/12/04 10:21:40;;;;;;;99.93;60.42;;;12.70;99.90;;;;;;5000889;28;20117;-69
2022/12/04 10:24:19;;;;;;;125.80;65.50;;;12.60;99.90;;;;;;4995877;28;20103;-66
2022/12/04 10:26:47;;;;;;;108.57;62.75;;;12.60;99.90;;;;;;4997393;28;20490;-67
2022/12/04 10:29:20;;;;;;;122.38;68.00;;;12.60;99.90;;;;;;5002424;28;20103;-68
2022/12/04 10:31:48;;;;;;;126.20;69.30;;;12.60;99.90;;;;;;4997692;28;20173;-67
2022/12/04 10:34:32;;;;;;;107.07;65.53;;;12.60;99.90;;;;;;4996126;28;20173;-69
2022/12/04 10:37:05;;;;;;;103.78;62.72;;;12.60;99.90;;;;;;5002530;28;20074;-66
2022/12/04 10:39:38;;;;;;;99.40;55.35;;;12.60;99.90;;;;;;4997866;28;20090;-67
2022/12/04 10:42:26;;;;;;;85.13;49.72;;;12.60;99.90;;;;;;5036184;28;20143;-68
2022/12/04 10:44:54;;;;;;;84.28;50.92;;;12.60;99.90;;;;;;5049351;28;20085;-69
2022/12/04 10:47:23;;;;;;;85.82;51.70;;;12.60;99.90;;;;;;5051110;28;20139;-68
2022/12/04 10:49:57;;;;;;;83.00;48.58;;;12.60;99.90;;;;;;5051853;28;20557;-66
2022/12/04 10:52:24;;;;;;;79.05;46.75;;;12.60;99.90;;;;;;5050869;28;20092;-67
2022/12/04 10:55:08;;;;;;;;;;;12.60;99.90;;;;;;5052174;28;20069;-68
2022/12/04 10:57:40;;;;;;;79.90;50.08;;;12.60;99.90;;;;;;5050225;28;19964;-68
2022/12/04 11:00:33;;;;;;;93.32;53.58;;;12.60;99.90;;;;;;5051148;28;20066;-66
2022/12/04 11:03:09;;;;;;;76.78;46.67;;;12.60;99.90;;;;;;5051146;28;20411;-66
2022/12/04 11:05:45;;;;;;;80.20;46.42;;;12.60;99.90;;;;;;5050973;28;20115;-68
2022/12/04 11:08:39;;;;;;;79.72;46.22;;;12.60;99.90;;;;;;5049580;28;20138;-66
2022/12/04 11:11:12;;;;;;;72.55;47.45;;;12.40;99.90;;;;;;5050537;28;20100;-67
2022/12/04 11:13:40;;;;;;;74.13;45.90;;;12.40;99.90;;;;;;5049198;28;20070;-68
2022/12/04 11:16:07;;;;;;;77.15;47.05;;;12.40;99.90;;;;;;5050845;28;20089;-68
2022/12/04 11:18:49;;;;;;;82.00;46.53;;;12.30;99.90;;;;;;5050716;28;20065;-68
2022/12/04 11:21:21;;;;;;;75.40;45.92;;;12.30;99.90;;;;;;5049151;28;20077;-69
2022/12/04 11:23:50;;;;;;;84.80;47.53;;;12.30;99.90;;;;;;5050291;28;20554;-68
2022/12/04 11:26:29;;;;;;;67.55;45.13;;;12.40;99.90;;;;;;5048539;28;20077;-67
2022/12/04 11:29:00;;;;;;;66.75;43.20;;;12.40;99.90;;;;;;5049666;28;20607;-67
2022/12/04 11:31:27;;;;;;;89.28;50.13;;;12.40;99.90;;;;;;5051544;28;20430;-68
2022/12/04 11:34:00;;;;;;;76.78;46.75;;;12.30;99.90;;;;;;5050460;28;20596;-67
2022/12/04 11:36:40;;;;;;;72.95;46.00;;;12.20;99.90;;;;;;5050047;28;20078;-68
2022/12/04 11:39:16;;;;;;;72.90;44.60;;;12.20;99.90;;;;;;5049104;28;20156;-67
2022/12/04 11:41:43;;;;;;;73.03;45.50;;;12.10;99.90;;;;;;5050998;28;20084;-68
2022/12/04 11:44:24;;;;;;;;;;;12.20;99.90;;;;;;5049078;28;20368;-68
2022/12/04 11:46:55;;;;;;;78.43;47.25;;;12.20;99.90;;;;;;5049820;28;20471;-67
2022/12/04 11:49:23;;;;;;;70.70;41.92;;;12.10;99.90;;;;;;5050068;28;20423;-67
2022/12/04 11:52:07;;;;;;;71.80;40.70;;;12.20;99.90;;;;;;5050367;28;20542;-68
2022/12/04 11:54:40;;;;;;;74.43;44.08;;;12.20;99.90;;;;;;5048953;28;20438;-68
2022/12/04 11:57:23;;;;;;;85.95;42.38;;;12.20;99.90;;;;;;5050439;28;20065;-67
2022/12/04 12:00:11;;;;;;;78.32;42.72;;;12.20;99.90;;;;;;5049262;28;20065;-68
2022/12/04 12:02:48;;;;;;;71.38;44.30;;;12.20;99.90;;;;;;5048733;28;20469;-69
2022/12/04 12:05:32;;;;;;;;;;;12.20;99.90;;;;;;5050679;28;20534;-67
2022/12/04 12:08:28;;;;;;;67.07;40.85;;;12.20;99.90;;;;;;5049565;28;19980;-68
2022/12/04 12:11:00;;;;;;;72.43;41.00;;;12.20;99.90;;;;;;5048253;28;20120;-68
2022/12/04 12:13:44;;;;;;;69.07;40.83;;;12.20;99.90;;;;;;5049188;28;20433;-67
2022/12/04 12:16:19;;;;;;;72.80;43.70;;;12.20;99.90;;;;;;5050041;28;20070;-68
2022/12/04 12:18:46;;;;;;;70.45;44.22;;;12.10;99.90;;;;;;5048046;28;20152;-68
2022/12/04 12:21:17;;;;;;;;;;;12.10;99.90;;;;;;5050308;28;20176;-67
2022/12/04 12:24:11;;;;;;;72.57;46.85;;;12.20;99.90;;;;;;5050323;28;19967;-68
2022/12/04 12:27:04;;;;;;;65.97;42.25;;;12.10;99.90;;;;;;5046661;28;20154;-68
2022/12/04 12:30:08;;;;;;;72.13;42.53;;;12.10;99.90;;;;;;5049511;28;20716;-66
2022/12/04 12:32:52;;;;;;;75.22;43.78;;;12.10;99.90;;;;;;5045160;28;20122;-67
2022/12/04 12:35:25;;;;;;;79.85;45.55;;;12.10;99.90;;;;;;5049906;28;20062;-68
2022/12/04 12:38:05;;;;;;;64.55;42.60;;;12.10;99.90;;;;;;5048244;28;20090;-69
2022/12/04 12:40:46;;;;;;;74.57;45.90;;;12.10;99.90;;;;;;5047801;28;20093;-70
2022/12/04 12:43:31;;;;;;;79.45;45.45;;;12.20;99.90;;;;;;5049958;28;20087;-68
2022/12/04 12:46:08;;;;;;;72.88;48.28;;;12.20;99.90;;;;;;5047728;28;20096;-67
2022/12/04 12:49:22;;;;;;;76.65;44.10;;;12.20;99.90;;;;;;5049215;28;20582;-67
2022/12/04 12:51:59;;;;;;;77.10;45.05;;;12.20;99.90;;;;;;4968184;28;20109;-69
2022/12/04 12:54:40;;;;;;;74.65;47.50;;;12.30;99.90;;;;;;4966438;28;20075;-68
2022/12/04 12:57:32;;;;;;;75.05;46.72;;;12.10;99.90;;;;;;4968767;28;20079;-68
2022/12/04 13:00:19;;;;;;;82.57;47.97;;;12.10;99.90;;;;;;4967705;28;20072;-67
2022/12/04 13:03:11;;;;;;;83.38;46.45;;;12.20;99.90;;;;;;4969155;28;20083;-68
2022/12/04 13:05:43;;;;;;;72.97;45.83;;;12.10;99.90;;;;;;4966070;28;20118;-68
2022/12/04 13:08:24;;;;;;;76.07;46.40;;;12.10;99.90;;;;;;4968214;28;21619;-67
2022/12/04 13:11:16;;;;;;;75.18;42.63;;;12.20;99.90;;;;;;4969063;28;20480;-69
2022/12/04 13:13:46;;;;;;;82.13;46.28;;;12.10;99.90;;;;;;4962863;28;20127;-69
2022/12/04 13:16:28;;;;;;;78.78;46.65;;;12.10;99.90;;;;;;4966122;28;20201;-67